createdAt,value
2018-06-17T00:00:34.877Z,20.50
2018-06-17T00:01:34.855Z,21.10
2018-06-17T00:02:34.859Z,21.90
2018-06-17T00:03:34.844Z,21.70
2018-06-17T00:04:34.831Z,20.80
2018-06-17T00:05:34.812Z,20.20
2018-06-17T00:06:34.797Z,20.50
2018-06-17T00:07:34.784Z,20.30
2018-06-17T00:08:34.778Z,19.10
2018-06-17T00:09:34.761Z,19.20
2018-06-17T00:10:34.758Z,19.60
2018-06-17T00:11:34.749Z,19.70
2018-06-17T00:12:34.726Z,20.00
2018-06-17T00:13:34.713Z,20.90
2018-06-17T00:14:34.694Z,20.40
2018-06-17T00:15:34.685Z,20.90
2018-06-17T00:16:34.683Z,19.50
2018-06-17T00:17:34.659Z,20.20
2018-06-17T00:18:34.659Z,18.50
2018-06-17T00:19:34.634Z,19.40
2018-06-17T00:20:34.628Z,21.20
2018-06-17T00:21:34.621Z,23.00
2018-06-17T00:22:34.602Z,22.30
2018-06-17T00:23:34.591Z,19.40
2018-06-17T00:24:34.582Z,20.80
2018-06-17T00:25:34.570Z,19.20
2018-06-17T00:26:34.556Z,19.10
2018-06-17T00:27:34.546Z,21.10
2018-06-17T00:28:34.531Z,19.40
2018-06-17T00:29:34.523Z,19.50
2018-06-17T00:30:34.506Z,20.10
2018-06-17T00:31:34.486Z,20.00
2018-06-17T00:32:34.477Z,21.90
2018-06-17T00:33:34.467Z,20.30
2018-06-17T00:34:34.448Z,22.70
2018-06-17T00:35:34.444Z,22.70
2018-06-17T00:36:34.426Z,20.10
2018-06-17T00:37:34.414Z,19.50
2018-06-17T00:38:34.411Z,19.80
2018-06-17T00:39:34.390Z,19.30
2018-06-17T00:40:34.381Z,23.50
2018-06-17T00:41:34.365Z,20.00
2018-06-17T00:42:34.348Z,21.70
2018-06-17T00:43:34.340Z,20.30
2018-06-17T00:44:34.326Z,20.80
2018-06-17T00:45:34.310Z,25.30
2018-06-17T00:46:34.302Z,22.70
2018-06-17T00:47:34.297Z,23.50
2018-06-17T00:48:34.294Z,22.10
2018-06-17T00:49:34.267Z,22.40
2018-06-17T00:50:34.250Z,22.80
2018-06-17T00:51:34.241Z,23.10
2018-06-17T00:52:34.228Z,23.10
2018-06-17T00:53:34.214Z,23.90
2018-06-17T00:54:34.207Z,22.90
2018-06-17T00:55:34.187Z,23.00
2018-06-17T00:56:34.174Z,23.50
2018-06-17T00:57:34.155Z,22.70
2018-06-17T00:58:34.145Z,22.70
2018-06-17T00:59:34.138Z,21.60
2018-06-17T01:00:34.120Z,22.10
2018-06-17T01:01:34.106Z,23.20
2018-06-17T01:02:34.100Z,21.60
2018-06-17T01:03:34.092Z,19.90
2018-06-17T01:04:34.066Z,20.60
2018-06-17T01:05:34.055Z,19.90
2018-06-17T01:06:34.053Z,18.20
2018-06-17T01:07:34.041Z,17.90
2018-06-17T01:08:34.022Z,19.70
2018-06-17T01:09:34.037Z,18.90
2018-06-17T01:10:33.998Z,19.60
2018-06-17T01:11:33.988Z,17.50
2018-06-17T01:12:33.966Z,20.40
2018-06-17T01:13:33.966Z,19.30
2018-06-17T01:14:33.948Z,17.30
2018-06-17T01:15:33.941Z,18.80
2018-06-17T01:16:33.919Z,20.30
2018-06-17T01:17:33.913Z,17.90
2018-06-17T01:18:33.900Z,17.60
2018-06-17T01:19:33.950Z,17.50
2018-06-17T01:20:33.868Z,19.30
2018-06-17T01:21:33.857Z,18.90
2018-06-17T01:22:33.849Z,18.80
2018-06-17T01:23:33.932Z,19.50
2018-06-17T01:24:33.812Z,22.20
2018-06-17T01:25:33.856Z,19.90
2018-06-17T01:26:33.786Z,16.80
2018-06-17T01:27:33.831Z,17.70
2018-06-17T01:28:33.767Z,19.60
2018-06-17T01:29:33.758Z,21.50
2018-06-17T01:30:33.745Z,16.50
2018-06-17T01:31:33.777Z,19.90
2018-06-17T01:32:33.717Z,17.80
2018-06-17T01:33:33.700Z,18.90
2018-06-17T01:34:33.688Z,21.20
2018-06-17T01:35:33.675Z,21.70
2018-06-17T01:36:33.659Z,21.90
2018-06-17T01:37:33.646Z,18.40
2018-06-17T01:38:33.638Z,16.70
2018-06-17T01:39:33.629Z,20.30
2018-06-17T01:40:33.611Z,19.90
2018-06-17T01:41:33.594Z,16.10
2018-06-17T01:42:33.579Z,18.40
2018-06-17T01:43:33.575Z,17.00
2018-06-17T01:44:33.557Z,17.30
2018-06-17T01:45:33.545Z,20.30
2018-06-17T01:46:33.533Z,19.60
2018-06-17T01:47:33.522Z,19.30
2018-06-17T01:48:33.509Z,17.70
2018-06-17T01:49:33.493Z,20.20
2018-06-17T01:50:33.478Z,17.70
2018-06-17T01:51:33.470Z,18.20
2018-06-17T01:52:33.460Z,17.00
2018-06-17T01:53:33.435Z,16.30
2018-06-17T01:54:33.477Z,18.90
2018-06-17T01:55:33.422Z,17.10
2018-06-17T01:56:33.402Z,14.50
2018-06-17T01:57:33.388Z,17.70
2018-06-17T01:58:33.377Z,16.10
2018-06-17T01:59:33.362Z,19.70
2018-06-17T02:00:33.345Z,17.70
2018-06-17T02:01:33.330Z,17.00
2018-06-17T02:02:33.319Z,15.00
2018-06-17T02:03:33.307Z,13.90
2018-06-17T02:04:33.287Z,13.50
2018-06-17T02:05:33.276Z,15.10
2018-06-17T02:06:33.267Z,16.10
2018-06-17T02:07:33.251Z,14.20
2018-06-17T02:08:33.243Z,14.00
2018-06-17T02:09:33.219Z,16.00
2018-06-17T02:10:33.207Z,16.90
2018-06-17T02:11:33.197Z,13.20
2018-06-17T02:12:33.189Z,14.60
2018-06-17T02:13:33.171Z,12.40
2018-06-17T02:14:33.158Z,13.60
2018-06-17T02:15:33.142Z,13.20
2018-06-17T02:16:33.126Z,15.80
2018-06-17T02:17:33.117Z,13.50
2018-06-17T02:18:33.114Z,16.30
2018-06-17T02:19:33.100Z,13.70
2018-06-17T02:20:33.075Z,13.10
2018-06-17T02:21:33.063Z,14.90
2018-06-17T02:22:33.051Z,14.20
2018-06-17T02:23:33.034Z,15.30
2018-06-17T02:24:33.018Z,11.30
2018-06-17T02:25:33.011Z,11.40
2018-06-17T02:26:33.002Z,12.00
2018-06-17T02:27:32.991Z,12.50
2018-06-17T02:28:32.969Z,15.10
2018-06-17T02:29:32.947Z,12.90
2018-06-17T02:30:32.939Z,12.70
2018-06-17T02:31:32.929Z,12.60
2018-06-17T02:32:32.905Z,10.40
2018-06-17T02:33:32.903Z,13.70
2018-06-17T02:34:32.877Z,13.20
2018-06-17T02:35:32.868Z,13.00
2018-06-17T02:36:32.854Z,16.40
2018-06-17T02:37:32.846Z,13.50
2018-06-17T02:38:32.825Z,11.80
2018-06-17T02:39:32.810Z,11.60
2018-06-17T02:40:32.802Z,11.60
2018-06-17T02:41:32.787Z,13.30
2018-06-17T02:42:32.772Z,12.90
2018-06-17T02:43:32.755Z,14.20
2018-06-17T02:44:32.737Z,14.80
2018-06-17T02:45:32.727Z,12.70
2018-06-17T02:46:32.721Z,13.30
2018-06-17T02:47:32.708Z,13.10
2018-06-17T02:48:32.690Z,13.20
2018-06-17T02:49:32.671Z,14.50
2018-06-17T02:50:32.762Z,14.60
2018-06-17T02:51:32.639Z,11.20
2018-06-17T02:52:32.664Z,12.80
2018-06-17T02:53:32.620Z,11.90
2018-06-17T02:54:32.752Z,11.90
2018-06-17T02:55:32.592Z,12.30
2018-06-17T02:56:32.569Z,14.30
2018-06-17T02:57:32.564Z,12.60
2018-06-17T02:58:32.646Z,11.30
2018-06-17T02:59:32.534Z,12.70
2018-06-17T03:00:32.562Z,10.30
2018-06-17T03:01:32.512Z,12.10
2018-06-17T03:02:32.490Z,13.60
2018-06-17T03:03:32.472Z,11.60
2018-06-17T03:04:32.461Z,11.40
2018-06-17T03:05:32.454Z,12.90
2018-06-17T03:06:32.436Z,10.00
2018-06-17T03:07:32.426Z,13.80
2018-06-17T03:08:32.405Z,10.60
2018-06-17T03:09:32.393Z,9.50
2018-06-17T03:10:32.380Z,14.00
2018-06-17T03:11:32.356Z,12.40
2018-06-17T03:12:32.353Z,12.50
2018-06-17T03:13:32.335Z,11.40
2018-06-17T03:14:32.322Z,13.40
2018-06-17T03:15:32.302Z,14.30
2018-06-17T03:16:32.314Z,12.50
2018-06-17T03:17:32.269Z,11.60
2018-06-17T03:18:32.267Z,11.50
2018-06-17T03:19:32.252Z,13.40
2018-06-17T03:20:32.228Z,13.00
2018-06-17T03:21:32.224Z,11.60
2018-06-17T03:22:32.199Z,11.50
2018-06-17T03:23:32.187Z,12.00
2018-06-17T03:24:32.180Z,13.00
2018-06-17T03:25:32.164Z,11.20
2018-06-17T03:26:32.145Z,12.60
2018-06-17T03:27:32.132Z,13.30
2018-06-17T03:28:32.129Z,11.30
2018-06-17T03:29:32.111Z,11.50
2018-06-17T03:30:32.095Z,11.20
2018-06-17T03:31:32.082Z,10.60
2018-06-17T03:32:32.066Z,12.40
2018-06-17T03:33:32.052Z,10.40
2018-06-17T03:34:32.037Z,14.80
2018-06-17T03:35:32.024Z,13.70
2018-06-17T03:36:32.012Z,15.10
2018-06-17T03:37:31.998Z,9.60
2018-06-17T03:38:31.982Z,13.60
2018-06-17T03:39:31.967Z,9.00
2018-06-17T03:40:31.947Z,14.30
2018-06-17T03:41:31.931Z,9.20
2018-06-17T03:42:31.928Z,10.50
2018-06-17T03:43:31.910Z,10.30
2018-06-17T03:44:31.896Z,13.20
2018-06-17T03:45:31.888Z,13.40
2018-06-17T03:46:31.871Z,12.30
2018-06-17T03:47:31.858Z,12.60
2018-06-17T03:48:31.842Z,13.40
2018-06-17T03:49:31.826Z,9.30
2018-06-17T03:50:31.814Z,10.50
2018-06-17T03:51:31.798Z,9.60
2018-06-17T03:52:31.778Z,9.50
2018-06-17T03:53:31.773Z,8.90
2018-06-17T03:54:31.761Z,11.20
2018-06-17T03:55:31.747Z,9.30
2018-06-17T03:56:31.721Z,10.20
2018-06-17T03:57:31.715Z,8.10
2018-06-17T03:58:31.699Z,9.20
2018-06-17T03:59:31.692Z,9.70
2018-06-17T04:00:31.674Z,7.70
2018-06-17T04:01:31.659Z,9.70
2018-06-17T04:02:31.648Z,11.90
2018-06-17T04:03:31.639Z,9.00
2018-06-17T04:04:31.619Z,10.30
2018-06-17T04:05:31.609Z,7.80
2018-06-17T04:06:31.593Z,10.20
2018-06-17T04:07:31.582Z,10.90
2018-06-17T04:08:31.561Z,10.00
2018-06-17T04:09:31.543Z,7.60
2018-06-17T04:10:31.540Z,7.70
2018-06-17T04:11:31.517Z,11.90
2018-06-17T04:12:31.507Z,7.20
2018-06-17T04:13:31.531Z,6.60
2018-06-17T04:14:31.481Z,10.70
2018-06-17T04:15:31.471Z,8.00
2018-06-17T04:16:31.452Z,9.30
2018-06-17T04:17:31.441Z,10.70
2018-06-17T04:18:31.429Z,8.20
2018-06-17T04:19:31.407Z,10.60
2018-06-17T04:20:31.391Z,9.70
2018-06-17T04:21:31.384Z,10.40
2018-06-17T04:22:31.372Z,8.50
2018-06-17T04:23:31.361Z,10.00
2018-06-17T04:24:31.342Z,7.70
2018-06-17T04:25:31.363Z,7.80
2018-06-17T04:26:31.314Z,7.90
2018-06-17T04:27:31.295Z,8.50
2018-06-17T04:28:31.290Z,9.20
2018-06-17T04:29:31.282Z,10.10
2018-06-17T04:30:31.258Z,6.80
2018-06-17T04:31:31.245Z,10.90
2018-06-17T04:32:31.239Z,8.90
2018-06-17T04:33:31.270Z,9.20
2018-06-17T04:34:31.203Z,7.70
2018-06-17T04:35:31.295Z,14.50
2018-06-17T04:36:31.180Z,8.60
2018-06-17T04:37:31.216Z,8.10
2018-06-17T04:38:31.151Z,9.30
2018-06-17T04:39:31.139Z,9.40
2018-06-17T04:40:31.126Z,12.90
2018-06-17T04:41:31.107Z,8.90
2018-06-17T04:42:31.097Z,10.80
2018-06-17T04:43:31.087Z,9.00
2018-06-17T04:44:31.071Z,11.00
2018-06-17T04:45:31.107Z,9.80
2018-06-17T04:46:31.045Z,11.10
2018-06-17T04:47:31.033Z,10.00
2018-06-17T04:48:31.068Z,8.40
2018-06-17T04:49:31.010Z,9.20
2018-06-17T04:50:30.991Z,11.40
2018-06-17T04:51:30.982Z,8.60
2018-06-17T04:52:30.963Z,8.40
2018-06-17T04:53:30.955Z,10.70
2018-06-17T04:54:30.928Z,10.10
2018-06-17T04:55:30.917Z,11.50
2018-06-17T04:56:30.905Z,10.50
2018-06-17T04:57:30.891Z,8.90
2018-06-17T04:58:30.881Z,9.50
2018-06-17T04:59:30.871Z,8.40
2018-06-17T05:00:30.853Z,10.20
2018-06-17T05:01:30.843Z,11.20
2018-06-17T05:02:30.817Z,9.40
2018-06-17T05:03:30.810Z,10.00
2018-06-17T05:04:30.798Z,9.50
2018-06-17T05:05:30.785Z,9.60
2018-06-17T05:06:30.763Z,9.20
2018-06-17T05:07:30.760Z,7.00
2018-06-17T05:08:30.737Z,7.90
2018-06-17T05:09:30.728Z,8.50
2018-06-17T05:10:30.720Z,10.90
2018-06-17T05:11:30.710Z,8.90
2018-06-17T05:12:30.686Z,8.60
2018-06-17T05:13:30.667Z,10.80
2018-06-17T05:14:30.658Z,9.40
2018-06-17T05:15:30.703Z,10.40
2018-06-17T05:16:30.632Z,6.90
2018-06-17T05:17:30.623Z,7.30
2018-06-17T05:18:30.660Z,7.70
2018-06-17T05:19:30.587Z,8.60
2018-06-17T05:20:30.578Z,10.00
2018-06-17T05:21:30.569Z,9.60
2018-06-17T05:22:30.551Z,11.10
2018-06-17T05:23:30.544Z,7.90
2018-06-17T05:24:30.523Z,8.60
2018-06-17T05:25:30.507Z,8.70
2018-06-17T05:26:30.494Z,8.40
2018-06-17T05:27:30.478Z,8.70
2018-06-17T05:28:30.462Z,9.40
2018-06-17T05:29:30.467Z,9.00
2018-06-17T05:30:30.443Z,9.30
2018-06-17T05:31:30.430Z,7.60
2018-06-17T05:32:30.424Z,9.10
2018-06-17T05:33:30.395Z,10.20
2018-06-17T05:34:30.392Z,7.70
2018-06-17T05:35:30.373Z,6.90
2018-06-17T05:36:30.361Z,9.00
2018-06-17T05:37:30.351Z,8.10
2018-06-17T05:38:30.333Z,7.20
2018-06-17T05:39:30.317Z,8.70
2018-06-17T05:40:30.305Z,7.10
2018-06-17T05:41:30.292Z,8.90
2018-06-17T05:42:30.279Z,8.20
2018-06-17T05:43:30.266Z,8.60
2018-06-17T05:44:30.253Z,10.10
2018-06-17T05:45:30.242Z,8.70
2018-06-17T05:46:30.221Z,7.50
2018-06-17T05:47:30.279Z,7.00
2018-06-17T05:48:30.203Z,8.20
2018-06-17T05:49:30.192Z,6.20
2018-06-17T05:50:30.171Z,6.80
2018-06-17T05:51:30.156Z,7.50
2018-06-17T05:52:30.148Z,9.60
2018-06-17T05:53:30.132Z,7.60
2018-06-17T05:54:30.123Z,8.80
2018-06-17T05:55:30.106Z,8.00
2018-06-17T05:56:30.094Z,6.80
2018-06-17T05:57:30.073Z,7.70
2018-06-17T05:58:30.066Z,8.00
2018-06-17T05:59:30.051Z,9.70
2018-06-17T06:00:30.042Z,8.80
2018-06-17T06:01:30.029Z,8.00
2018-06-17T06:02:30.015Z,10.50
2018-06-17T06:03:30.002Z,7.70
2018-06-17T06:04:29.993Z,7.30
2018-06-17T06:05:29.979Z,5.90
2018-06-17T06:06:29.957Z,7.10
2018-06-17T06:07:29.948Z,9.30
2018-06-17T06:08:29.942Z,7.60
2018-06-17T06:09:29.922Z,8.80
2018-06-17T06:10:29.919Z,6.40
2018-06-17T06:11:29.902Z,6.20
2018-06-17T06:12:29.885Z,6.50
2018-06-17T06:13:29.875Z,7.80
2018-06-17T06:14:29.861Z,8.10
2018-06-17T06:15:29.852Z,9.80
2018-06-17T06:16:29.830Z,7.70
2018-06-17T06:17:29.823Z,7.80
2018-06-17T06:18:29.804Z,7.80
2018-06-17T06:19:29.794Z,8.30
2018-06-17T06:20:29.779Z,8.40
2018-06-17T06:21:29.782Z,6.50
2018-06-17T06:22:29.762Z,7.40
2018-06-17T06:23:29.749Z,6.60
2018-06-17T06:24:29.736Z,9.30
2018-06-17T06:25:29.728Z,6.90
2018-06-17T06:26:29.708Z,5.10
2018-06-17T06:27:29.701Z,6.90
2018-06-17T06:28:29.689Z,7.20
2018-06-17T06:29:29.672Z,6.00
2018-06-17T06:30:29.657Z,6.50
2018-06-17T06:31:29.647Z,7.00
2018-06-17T06:32:29.631Z,6.30
2018-06-17T06:33:29.625Z,6.10
2018-06-17T06:34:29.612Z,6.80
2018-06-17T06:35:29.596Z,6.60
2018-06-17T06:36:29.593Z,7.70
2018-06-17T06:37:29.571Z,6.60
2018-06-17T06:38:29.567Z,8.00
2018-06-17T06:39:29.552Z,5.40
2018-06-17T06:40:29.542Z,6.60
2018-06-17T06:41:29.528Z,6.90
2018-06-17T06:42:29.510Z,9.10
2018-06-17T06:43:29.513Z,7.10
2018-06-17T06:44:29.492Z,4.30
2018-06-17T06:45:29.539Z,5.30
2018-06-17T06:46:29.472Z,7.90
2018-06-17T06:47:29.450Z,7.40
2018-06-17T06:48:29.438Z,7.00
2018-06-17T06:49:29.437Z,7.80
2018-06-17T06:50:29.418Z,7.20
2018-06-17T06:51:29.519Z,6.60
2018-06-17T06:52:29.393Z,5.60
2018-06-17T06:53:29.376Z,7.00
2018-06-17T06:54:29.366Z,6.70
2018-06-17T06:55:29.463Z,7.40
2018-06-17T06:56:29.348Z,6.00
2018-06-17T06:57:29.392Z,6.20
2018-06-17T06:58:29.322Z,6.50
2018-06-17T06:59:29.412Z,9.50
2018-06-17T07:00:29.293Z,7.50
2018-06-17T07:01:29.281Z,7.00
2018-06-17T07:02:29.272Z,4.80
2018-06-17T07:03:29.309Z,7.50
2018-06-17T07:04:29.239Z,5.70
2018-06-17T07:05:29.288Z,7.60
2018-06-17T07:06:29.229Z,6.10
2018-06-17T07:07:29.212Z,5.80
2018-06-17T07:08:29.204Z,7.30
2018-06-17T07:09:29.191Z,5.40
2018-06-17T07:10:29.176Z,4.50
2018-06-17T07:11:29.166Z,7.20
2018-06-17T07:12:29.146Z,5.70
2018-06-17T07:13:29.147Z,7.40
2018-06-17T07:14:29.128Z,7.20
2018-06-17T07:15:29.122Z,7.60
2018-06-17T07:16:29.108Z,6.40
2018-06-17T07:17:29.102Z,6.40
2018-06-17T07:18:29.077Z,7.10
2018-06-17T07:19:29.071Z,9.30
2018-06-17T07:20:29.063Z,8.30
2018-06-17T07:21:29.050Z,8.00
2018-06-17T07:22:29.049Z,8.60
2018-06-17T07:23:29.036Z,5.70
2018-06-17T07:24:29.017Z,7.40
2018-06-17T07:25:29.010Z,5.20
2018-06-17T07:26:28.997Z,6.10
2018-06-17T07:27:28.982Z,8.00
2018-06-17T07:28:28.972Z,6.60
2018-06-17T07:29:28.957Z,5.40
2018-06-17T07:30:28.951Z,5.60
2018-06-17T07:31:28.937Z,7.20
2018-06-17T07:32:28.931Z,8.30
2018-06-17T07:33:28.921Z,7.50
2018-06-17T07:34:28.896Z,7.70
2018-06-17T07:35:28.896Z,7.00
2018-06-17T07:36:28.881Z,6.30
2018-06-17T07:37:28.875Z,9.10
2018-06-17T07:38:28.862Z,7.20
2018-06-17T07:39:28.862Z,6.00
2018-06-17T07:40:28.839Z,5.60
2018-06-17T07:41:28.820Z,7.50
2018-06-17T07:42:28.817Z,6.80
2018-06-17T07:43:28.807Z,6.80
2018-06-17T07:44:28.801Z,7.40
2018-06-17T07:45:28.789Z,9.10
2018-06-17T07:46:28.775Z,9.60
2018-06-17T07:47:28.770Z,6.60
2018-06-17T07:48:28.754Z,5.90
2018-06-17T07:49:28.815Z,7.20
2018-06-17T07:50:28.751Z,5.60
2018-06-17T07:51:28.731Z,7.30
2018-06-17T07:52:28.708Z,7.70
2018-06-17T07:53:28.702Z,6.20
2018-06-17T07:54:28.695Z,7.70
2018-06-17T07:55:28.680Z,7.50
2018-06-17T07:56:28.664Z,11.90
2018-06-17T07:57:28.664Z,7.20
2018-06-17T07:58:28.648Z,6.70
2018-06-17T07:59:28.638Z,6.00
2018-06-17T08:00:28.628Z,7.20
2018-06-17T08:01:28.617Z,7.10
2018-06-17T08:02:28.612Z,7.40
2018-06-17T08:03:28.596Z,7.40
2018-06-17T08:04:28.586Z,6.00
2018-06-17T08:05:28.593Z,8.70
2018-06-17T08:06:28.567Z,7.80
2018-06-17T08:07:28.559Z,6.50
2018-06-17T08:08:28.552Z,8.20
2018-06-17T08:09:28.539Z,8.80
2018-06-17T08:10:28.532Z,9.30
2018-06-17T08:11:28.522Z,9.90
2018-06-17T08:12:28.532Z,6.50
2018-06-17T08:13:28.497Z,6.60
2018-06-17T08:14:28.489Z,8.30
2018-06-17T08:15:28.492Z,7.00
2018-06-17T08:16:28.476Z,7.20
2018-06-17T08:17:28.472Z,8.90
2018-06-17T08:18:28.510Z,6.00
2018-06-17T08:19:28.436Z,8.60
2018-06-17T08:20:28.441Z,9.10
2018-06-17T08:21:28.419Z,6.60
2018-06-17T08:22:28.412Z,6.80
2018-06-17T08:23:28.403Z,6.70
2018-06-17T08:24:28.405Z,7.00
2018-06-17T08:25:28.433Z,9.40
2018-06-17T08:26:28.368Z,6.20
2018-06-17T08:27:28.358Z,7.10
2018-06-17T08:28:28.356Z,7.70
2018-06-17T08:29:28.345Z,8.00
2018-06-17T08:30:28.409Z,8.70
2018-06-17T08:31:28.319Z,7.20
2018-06-17T08:32:28.307Z,7.40
2018-06-17T08:33:28.297Z,8.10
2018-06-17T08:34:28.293Z,7.00
2018-06-17T08:35:28.313Z,7.00
2018-06-17T08:36:28.272Z,7.10
2018-06-17T08:37:28.256Z,6.70
2018-06-17T08:38:28.252Z,7.90
2018-06-17T08:39:28.239Z,5.60
2018-06-17T08:40:28.236Z,7.50
2018-06-17T08:41:28.218Z,7.40
2018-06-17T08:42:28.217Z,7.40
2018-06-17T08:43:28.215Z,7.70
2018-06-17T08:44:28.238Z,8.30
2018-06-17T08:45:28.301Z,6.80
2018-06-17T08:46:28.182Z,6.10
2018-06-17T08:47:28.169Z,5.90
2018-06-17T08:48:28.150Z,6.80
2018-06-17T08:49:28.151Z,7.20
2018-06-17T08:50:28.130Z,6.30
2018-06-17T08:51:28.119Z,5.80
2018-06-17T08:52:28.108Z,8.20
2018-06-17T08:53:28.102Z,6.80
2018-06-17T08:54:28.090Z,6.40
2018-06-17T08:55:28.234Z,6.30
2018-06-17T08:56:28.073Z,9.80
2018-06-17T08:57:28.063Z,6.90
2018-06-17T08:58:28.044Z,6.00
2018-06-17T08:59:28.098Z,5.40
2018-06-17T09:00:28.031Z,8.10
2018-06-17T09:01:28.067Z,8.20
2018-06-17T09:02:28.003Z,7.00
2018-06-17T09:03:27.991Z,8.20
2018-06-17T09:04:27.984Z,7.70
2018-06-17T09:05:27.964Z,5.80
2018-06-17T09:06:27.983Z,5.70
2018-06-17T09:07:27.952Z,5.80
2018-06-17T09:08:27.936Z,7.90
2018-06-17T09:09:27.939Z,4.70
2018-06-17T09:10:27.916Z,7.10
2018-06-17T09:11:27.913Z,6.40
2018-06-17T09:12:27.946Z,9.10
2018-06-17T09:13:27.880Z,8.10
2018-06-17T09:14:27.882Z,9.50
2018-06-17T09:15:27.868Z,7.30
2018-06-17T09:16:27.868Z,6.60
2018-06-17T09:17:27.843Z,5.40
2018-06-17T09:18:27.829Z,6.70
2018-06-17T09:19:27.819Z,6.20
2018-06-17T09:20:27.809Z,7.90
2018-06-17T09:21:27.802Z,8.50
2018-06-17T09:22:27.787Z,9.00
2018-06-17T09:23:27.780Z,8.80
2018-06-17T09:24:27.775Z,8.30
2018-06-17T09:25:27.765Z,8.40
2018-06-17T09:26:27.744Z,6.70
2018-06-17T09:27:27.740Z,6.20
2018-06-17T09:28:27.737Z,12.30
2018-06-17T09:29:27.717Z,8.90
2018-06-17T09:30:27.704Z,9.50
2018-06-17T09:31:27.696Z,8.10
2018-06-17T09:32:27.684Z,10.10
2018-06-17T09:33:27.666Z,8.30
2018-06-17T09:34:27.657Z,6.90
2018-06-17T09:35:27.651Z,6.70
2018-06-17T09:36:27.683Z,7.20
2018-06-17T09:37:27.626Z,8.30
2018-06-17T09:38:27.619Z,9.80
2018-06-17T09:39:27.606Z,8.70
2018-06-17T09:40:27.609Z,8.30
2018-06-17T09:41:27.587Z,7.30
2018-06-17T09:42:27.577Z,5.80
2018-06-17T09:43:27.565Z,8.80
2018-06-17T09:44:27.591Z,8.80
2018-06-17T09:45:27.550Z,9.00
2018-06-17T09:46:27.530Z,8.10
2018-06-17T09:47:27.529Z,8.60
2018-06-17T09:48:27.517Z,8.20
2018-06-17T09:49:27.504Z,8.40
2018-06-17T09:50:27.499Z,9.00
2018-06-17T09:51:27.482Z,8.50
2018-06-17T09:52:27.469Z,9.00
2018-06-17T09:53:27.465Z,9.10
2018-06-17T09:54:27.447Z,10.40
2018-06-17T09:55:27.431Z,9.80
2018-06-17T09:56:27.432Z,7.50
2018-06-17T09:57:27.427Z,7.80
2018-06-17T09:58:27.413Z,6.40
2018-06-17T09:59:27.399Z,6.30
2018-06-17T10:00:27.390Z,7.50
2018-06-17T10:01:27.385Z,7.40
2018-06-17T10:02:27.358Z,8.20
2018-06-17T10:03:27.358Z,7.80
2018-06-17T10:04:27.347Z,8.00
2018-06-17T10:05:27.364Z,5.20
2018-06-17T10:06:27.322Z,7.10
2018-06-17T10:07:27.316Z,9.40
2018-06-17T10:08:27.296Z,9.10
2018-06-17T10:09:27.285Z,7.10
2018-06-17T10:10:27.286Z,11.20
2018-06-17T10:11:27.267Z,8.00
2018-06-17T10:12:27.253Z,7.90
2018-06-17T10:13:27.246Z,8.20
2018-06-17T10:14:27.238Z,7.50
2018-06-17T10:15:27.235Z,7.10
2018-06-17T10:16:27.211Z,8.80
2018-06-17T10:17:27.208Z,9.80
2018-06-17T10:18:27.194Z,6.90
2018-06-17T10:19:27.186Z,8.00
2018-06-17T10:20:27.191Z,8.60
2018-06-17T10:21:27.159Z,7.70
2018-06-17T10:22:27.157Z,5.00
2018-06-17T10:23:27.133Z,6.80
2018-06-17T10:24:27.136Z,8.30
2018-06-17T10:25:27.116Z,7.50
2018-06-17T10:26:27.105Z,7.40
2018-06-17T10:27:27.099Z,8.10
2018-06-17T10:28:27.084Z,8.80
2018-06-17T10:29:27.110Z,6.80
2018-06-17T10:30:27.071Z,9.10
2018-06-17T10:31:27.062Z,7.00
2018-06-17T10:32:27.045Z,5.90
2018-06-17T10:33:27.041Z,13.70
2018-06-17T10:34:27.029Z,9.80
2018-06-17T10:35:27.064Z,7.40
2018-06-17T10:36:27.007Z,7.60
2018-06-17T10:37:26.994Z,6.10
2018-06-17T10:38:26.988Z,8.90
2018-06-17T10:39:26.997Z,6.40
2018-06-17T10:40:26.968Z,6.60
2018-06-17T10:41:26.981Z,8.10
2018-06-17T10:42:26.943Z,5.90
2018-06-17T10:43:27.057Z,10.00
2018-06-17T10:44:27.002Z,6.90
2018-06-17T10:45:26.997Z,8.60
2018-06-17T10:46:26.958Z,8.70
2018-06-17T10:47:26.889Z,7.10
2018-06-17T10:48:26.879Z,6.00
2018-06-17T10:49:26.924Z,6.50
2018-06-17T10:50:26.874Z,7.70
2018-06-17T10:51:26.901Z,8.20
2018-06-17T10:52:26.833Z,8.70
2018-06-17T10:53:26.831Z,11.00
2018-06-17T10:54:26.818Z,7.70
2018-06-17T10:55:26.806Z,7.30
2018-06-17T10:56:26.797Z,7.50
2018-06-17T10:57:26.783Z,9.20
2018-06-17T10:58:26.777Z,10.30
2018-06-17T10:59:26.771Z,7.20
2018-06-17T11:00:26.751Z,7.20
2018-06-17T11:01:26.745Z,6.50
2018-06-17T11:02:26.730Z,9.20
2018-06-17T11:03:26.723Z,8.90
2018-06-17T11:04:26.706Z,7.20
2018-06-17T11:05:26.746Z,7.60
2018-06-17T11:06:26.687Z,9.10
2018-06-17T11:07:26.677Z,6.70
2018-06-17T11:08:26.660Z,9.60
2018-06-17T11:09:26.683Z,7.20
2018-06-17T11:10:26.647Z,7.90
2018-06-17T11:11:26.642Z,9.80
2018-06-17T11:12:26.632Z,7.60
2018-06-17T11:13:26.623Z,8.00
2018-06-17T11:14:26.612Z,10.70
2018-06-17T11:15:26.600Z,6.10
2018-06-17T11:16:26.588Z,7.20
2018-06-17T11:17:26.591Z,6.50
2018-06-17T11:18:26.569Z,9.20
2018-06-17T11:19:26.563Z,10.20
2018-06-17T11:20:26.545Z,10.00
2018-06-17T11:21:26.533Z,6.50
2018-06-17T11:22:26.531Z,8.20
2018-06-17T11:23:26.518Z,8.40
2018-06-17T11:24:26.503Z,10.80
2018-06-17T11:25:26.493Z,10.00
2018-06-17T11:26:26.482Z,6.90
2018-06-17T11:27:26.470Z,6.10
2018-06-17T11:28:26.464Z,7.20
2018-06-17T11:29:26.450Z,8.40
2018-06-17T11:30:26.444Z,9.80
2018-06-17T11:31:26.433Z,6.20
2018-06-17T11:32:26.424Z,7.80
2018-06-17T11:33:26.409Z,7.30
2018-06-17T11:34:26.402Z,8.70
2018-06-17T11:35:26.389Z,9.00
2018-06-17T11:36:26.375Z,10.50
2018-06-17T11:37:26.367Z,8.30
2018-06-17T11:38:26.361Z,8.30
2018-06-17T11:39:26.356Z,7.50
2018-06-17T11:40:26.335Z,6.40
2018-06-17T11:41:26.334Z,7.00
2018-06-17T11:42:26.319Z,9.20
2018-06-17T11:43:26.300Z,7.80
2018-06-17T11:44:26.300Z,7.50
2018-06-17T11:45:26.290Z,10.00
2018-06-17T11:46:26.274Z,7.80
2018-06-17T11:47:26.268Z,9.70
2018-06-17T11:48:26.251Z,9.40
2018-06-17T11:49:26.251Z,11.80
2018-06-17T11:50:26.242Z,6.90
2018-06-17T11:51:26.284Z,9.50
2018-06-17T11:52:26.218Z,8.40
2018-06-17T11:53:26.204Z,8.50
2018-06-17T11:54:26.194Z,7.10
2018-06-17T11:55:26.188Z,8.40
2018-06-17T11:56:26.173Z,7.00
2018-06-17T11:57:26.162Z,9.20
2018-06-17T11:58:26.149Z,7.30
2018-06-17T11:59:26.136Z,5.90
2018-06-17T12:00:26.133Z,7.70
2018-06-17T12:01:26.125Z,9.00
2018-06-17T12:02:26.111Z,9.50
2018-06-17T12:03:26.096Z,8.20
2018-06-17T12:04:26.136Z,7.30
2018-06-17T12:05:26.105Z,6.00
2018-06-17T12:06:26.068Z,7.60
2018-06-17T12:07:26.062Z,8.70
2018-06-17T12:08:26.052Z,8.20
2018-06-17T12:09:26.039Z,6.80
2018-06-17T12:10:26.033Z,8.80
2018-06-17T12:11:26.014Z,5.10
2018-06-17T12:12:26.008Z,7.70
2018-06-17T12:13:25.998Z,7.10
2018-06-17T12:14:26.038Z,9.00
2018-06-17T12:15:25.985Z,10.70
2018-06-17T12:16:25.969Z,5.80
2018-06-17T12:17:25.952Z,9.10
2018-06-17T12:18:25.952Z,6.30
2018-06-17T12:19:25.943Z,8.20
2018-06-17T12:20:25.921Z,7.60
2018-06-17T12:21:25.917Z,11.70
2018-06-17T12:22:25.915Z,8.20
2018-06-17T12:23:25.903Z,7.30
2018-06-17T12:24:25.885Z,5.20
2018-06-17T12:25:25.909Z,5.80
2018-06-17T12:26:25.872Z,9.10
2018-06-17T12:27:25.857Z,6.50
2018-06-17T12:28:25.854Z,6.70
2018-06-17T12:29:25.838Z,9.70
2018-06-17T12:30:25.827Z,5.80
2018-06-17T12:31:25.823Z,7.70
2018-06-17T12:32:25.806Z,7.00
2018-06-17T12:33:25.819Z,6.00
2018-06-17T12:34:25.795Z,7.90
2018-06-17T12:35:25.803Z,7.00
2018-06-17T12:36:25.771Z,7.90
2018-06-17T12:37:25.766Z,6.50
2018-06-17T12:38:25.751Z,6.70
2018-06-17T12:39:25.740Z,5.90
2018-06-17T12:40:25.742Z,6.40
2018-06-17T12:41:25.820Z,6.20
2018-06-17T12:42:25.713Z,10.60
2018-06-17T12:43:25.706Z,6.80
2018-06-17T12:44:25.691Z,6.00
2018-06-17T12:45:25.738Z,5.40
2018-06-17T12:46:25.674Z,5.10
2018-06-17T12:47:25.707Z,9.30
2018-06-17T12:48:25.653Z,4.70
2018-06-17T12:49:25.648Z,8.20
2018-06-17T12:50:25.662Z,7.30
2018-06-17T12:51:25.630Z,6.50
2018-06-17T12:52:25.617Z,7.30
2018-06-17T12:53:25.610Z,5.70
2018-06-17T12:54:25.596Z,6.50
2018-06-17T12:55:25.597Z,5.70
2018-06-17T12:56:25.580Z,5.00
2018-06-17T12:57:25.572Z,8.80
2018-06-17T12:58:25.563Z,9.10
2018-06-17T12:59:25.553Z,6.80
2018-06-17T13:00:25.539Z,4.80
2018-06-17T13:01:25.527Z,5.00
2018-06-17T13:02:25.519Z,5.50
2018-06-17T13:03:25.517Z,7.50
2018-06-17T13:04:25.504Z,5.00
2018-06-17T13:05:25.488Z,4.60
2018-06-17T13:06:25.483Z,5.50
2018-06-17T13:07:25.471Z,5.00
2018-06-17T13:08:25.462Z,5.30
2018-06-17T13:09:25.452Z,4.40